createdAt,value
2023-03-19T00:00:35.514Z,5.22
2023-03-19T00:05:37.117Z,5.20
2023-03-19T00:10:39.278Z,5.16
2023-03-19T00:15:41.594Z,5.12
2023-03-19T00:20:43.607Z,5.07
2023-03-19T00:25:45.189Z,5.03
2023-03-19T00:30:47.343Z,4.97
2023-03-19T00:35:48.960Z,4.91
2023-03-19T00:40:50.549Z,4.85
2023-03-19T00:45:52.145Z,4.78
2023-03-19T00:50:53.717Z,4.73
2023-03-19T00:55:55.252Z,4.68
2023-03-19T01:00:57.354Z,4.62
2023-03-19T01:05:59.329Z,4.57
2023-03-19T01:11:15.441Z,4.50
2023-03-19T01:16:17.091Z,4.45
2023-03-19T01:21:18.666Z,4.43
2023-03-19T01:26:20.191Z,4.44
2023-03-19T01:31:22.165Z,4.45
2023-03-19T01:36:23.858Z,4.48
2023-03-19T01:41:26.423Z,4.50
2023-03-19T01:46:34.471Z,4.51
2023-03-19T01:51:41.590Z,4.50
2023-03-19T01:56:47.132Z,4.48
2023-03-19T02:02:16.532Z,4.46
2023-03-19T02:07:18.614Z,4.44
2023-03-19T02:12:20.137Z,4.40
2023-03-19T02:17:22.110Z,4.36
2023-03-19T02:22:27.542Z,4.29
2023-03-19T02:27:29.090Z,4.24
2023-03-19T02:32:30.628Z,4.17
2023-03-19T02:37:33.784Z,4.14
2023-03-19T02:42:35.674Z,4.09
2023-03-19T02:47:37.233Z,4.05
2023-03-19T02:52:39.317Z,4.01
2023-03-19T02:57:40.913Z,3.95
2023-03-19T03:02:42.639Z,3.90
2023-03-19T03:07:45.002Z,3.84
2023-03-19T03:12:46.602Z,3.78
2023-03-19T03:17:48.161Z,3.72
2023-03-19T03:22:49.760Z,3.65
2023-03-19T03:27:52.076Z,3.57
2023-03-19T03:32:53.685Z,3.51
2023-03-19T03:37:55.474Z,3.48
2023-03-19T03:42:57.344Z,3.47
2023-03-19T03:47:58.872Z,3.45
2023-03-19T03:53:00.399Z,3.45
2023-03-19T03:58:01.963Z,3.44
2023-03-19T04:03:03.821Z,3.42
2023-03-19T04:08:07.134Z,3.39
2023-03-19T04:13:12.575Z,3.38
2023-03-19T04:18:14.058Z,3.37
2023-03-19T04:23:15.649Z,3.35
2023-03-19T04:28:17.556Z,3.32
2023-03-19T04:33:19.315Z,3.32
2023-03-19T04:38:21.166Z,3.31
2023-03-19T04:43:24.402Z,3.30
2023-03-19T04:48:26.590Z,3.28
2023-03-19T04:53:28.353Z,3.24
2023-03-19T04:58:29.884Z,3.21
2023-03-19T05:03:31.782Z,3.18
2023-03-19T05:08:33.938Z,3.19
2023-03-19T05:13:35.884Z,3.27
2023-03-19T05:18:40.703Z,3.39
2023-03-19T05:23:42.969Z,3.45
2023-03-19T05:28:44.442Z,3.54
2023-03-19T05:33:45.930Z,3.56
2023-03-19T05:38:47.478Z,3.60
2023-03-19T05:43:48.996Z,3.64
2023-03-19T05:48:51.635Z,3.69
2023-03-19T05:53:53.160Z,3.76
2023-03-19T05:58:54.804Z,3.82
2023-03-19T06:03:56.326Z,3.91
2023-03-19T06:08:57.966Z,4.05
2023-03-19T06:13:59.441Z,4.16
2023-03-19T06:19:01.247Z,4.27
2023-03-19T06:24:02.887Z,4.40
2023-03-19T06:29:04.462Z,4.52
2023-03-19T06:34:06.044Z,4.64
2023-03-19T06:39:07.722Z,4.69
2023-03-19T06:44:09.303Z,4.76
2023-03-19T06:49:11.462Z,4.88
2023-03-19T06:54:12.938Z,5.01
2023-03-19T06:59:14.808Z,5.16
2023-03-19T07:04:16.852Z,5.34
2023-03-19T07:09:18.409Z,5.59
2023-03-19T07:14:20.000Z,5.86
2023-03-19T07:19:21.680Z,6.13
2023-03-19T07:24:23.252Z,6.37
2023-03-19T07:29:24.740Z,6.54
2023-03-19T07:34:26.516Z,6.65
2023-03-19T07:39:28.036Z,6.74
2023-03-19T07:44:29.493Z,6.86
2023-03-19T07:49:31.449Z,6.96
2023-03-19T07:54:33.178Z,7.07
2023-03-19T07:59:34.745Z,7.21
2023-03-19T08:04:37.418Z,7.36
2023-03-19T08:09:40.088Z,7.53
2023-03-19T08:14:41.645Z,7.72
2023-03-19T08:19:43.511Z,7.89
2023-03-19T08:24:45.159Z,8.08
2023-03-19T08:29:47.118Z,8.29
2023-03-19T08:34:49.762Z,8.49
2023-03-19T08:39:52.291Z,8.73
2023-03-19T08:44:53.852Z,8.97
2023-03-19T08:49:55.916Z,9.20
2023-03-19T08:54:57.445Z,9.46
2023-03-19T08:59:59.269Z,9.78
2023-03-19T09:05:00.947Z,10.15
2023-03-19T09:10:02.592Z,10.47
2023-03-19T09:15:04.722Z,10.72
2023-03-19T09:20:07.636Z,10.85
2023-03-19T09:25:09.590Z,11.01
2023-03-19T09:30:18.530Z,11.26
2023-03-19T09:35:20.585Z,11.49
2023-03-19T09:40:50.678Z,11.73
2023-03-19T09:45:52.431Z,11.92
2023-03-19T09:50:54.788Z,12.11
2023-03-19T09:55:59.520Z,12.36
2023-03-19T10:01:02.117Z,12.53
2023-03-19T10:06:09.606Z,12.65
2023-03-19T10:11:29.871Z,12.84
2023-03-19T10:16:31.828Z,12.94
2023-03-19T10:21:50.793Z,12.98
2023-03-19T10:27:00.419Z,12.99
2023-03-19T10:32:21.198Z,13.00
2023-03-19T10:37:26.204Z,12.96
2023-03-19T10:42:55.898Z,13.08
2023-03-19T10:47:59.109Z,13.19
2023-03-19T10:53:04.120Z,13.17
2023-03-19T10:58:16.258Z,13.18
2023-03-19T11:03:33.959Z,13.26
2023-03-19T11:08:37.824Z,13.42
2023-03-19T11:13:39.411Z,13.76
2023-03-19T11:18:41.257Z,14.00
2023-03-19T11:23:43.206Z,14.20
2023-03-19T11:28:44.787Z,14.26
2023-03-19T11:34:14.300Z,14.32
2023-03-19T11:39:30.431Z,14.32
2023-03-19T11:44:58.132Z,14.39
2023-03-19T11:50:17.990Z,14.55
2023-03-19T11:55:36.183Z,14.77
2023-03-19T12:00:41.357Z,15.00
2023-03-19T12:05:58.163Z,15.21
2023-03-19T12:11:18.655Z,15.35
2023-03-19T12:16:45.757Z,15.35
2023-03-19T12:21:59.984Z,15.34
2023-03-19T12:27:28.190Z,15.25
2023-03-19T12:32:54.392Z,15.23
2023-03-19T12:38:03.132Z,15.09
2023-03-19T12:43:19.679Z,15.08
2023-03-19T12:48:51.458Z,15.16
2023-03-19T12:54:01.417Z,15.21
2023-03-19T12:59:14.394Z,15.24
2023-03-19T13:04:31.032Z,15.31
2023-03-19T13:09:57.818Z,15.42
2023-03-19T13:15:24.281Z,15.56
2023-03-19T13:20:56.717Z,15.64
2023-03-19T13:26:01.417Z,15.77
2023-03-19T13:31:08.813Z,15.98
2023-03-19T13:36:15.243Z,16.05
2023-03-19T13:41:35.420Z,16.10
2023-03-19T13:46:40.093Z,16.14
2023-03-19T13:51:41.724Z,16.12
2023-03-19T13:57:01.032Z,16.08
2023-03-19T14:02:25.142Z,16.08
2023-03-19T14:07:30.489Z,16.12
2023-03-19T14:12:36.371Z,16.06
2023-03-19T14:18:02.454Z,16.00
2023-03-19T14:23:11.332Z,16.01
2023-03-19T14:28:19.623Z,15.94
2023-03-19T14:33:35.714Z,15.95
2023-03-19T14:38:44.142Z,15.97
2023-03-19T14:43:45.599Z,15.89
2023-03-19T14:48:58.415Z,15.76
2023-03-19T14:54:21.042Z,15.61
2023-03-19T14:59:23.167Z,15.53
2023-03-19T15:04:27.187Z,15.47
2023-03-19T15:09:32.392Z,15.40
2023-03-19T15:15:06.064Z,15.30
2023-03-19T15:20:21.409Z,15.16
2023-03-19T15:25:23.937Z,14.98
2023-03-19T15:30:50.439Z,14.80
2023-03-19T15:36:03.185Z,14.52
2023-03-19T15:41:07.812Z,14.31
2023-03-19T15:46:16.305Z,14.13
2023-03-19T15:51:21.178Z,13.98
2023-03-19T15:56:24.335Z,13.86
2023-03-19T16:01:27.396Z,13.72
2023-03-19T16:06:39.622Z,13.54
2023-03-19T16:11:43.648Z,13.37
2023-03-19T16:16:47.473Z,13.18
2023-03-19T16:21:48.999Z,12.99
2023-03-19T16:26:52.010Z,12.82
2023-03-19T16:31:59.888Z,12.63
2023-03-19T16:37:01.744Z,12.40
2023-03-19T16:42:36.585Z,12.17
2023-03-19T16:47:38.166Z,11.93
2023-03-19T16:52:40.929Z,11.67
2023-03-19T16:57:42.570Z,11.42
2023-03-19T17:02:44.057Z,11.22
2023-03-19T17:07:45.585Z,11.00
2023-03-19T17:12:52.248Z,10.78
2023-03-19T17:17:54.715Z,10.52
2023-03-19T17:22:56.253Z,10.39
2023-03-19T17:27:57.855Z,10.32
2023-03-19T17:32:59.912Z,10.15
2023-03-19T17:38:01.714Z,10.01
2023-03-19T17:43:08.235Z,10.00
2023-03-19T17:48:25.504Z,10.04
2023-03-19T17:53:27.262Z,10.08
2023-03-19T17:58:28.936Z,10.10
2023-03-19T18:03:31.993Z,10.09
2023-03-19T18:08:34.249Z,10.08
2023-03-19T18:13:36.495Z,10.06
2023-03-19T18:18:38.037Z,10.03
2023-03-19T18:23:39.695Z,9.99
2023-03-19T18:28:41.246Z,9.94
2023-03-19T18:33:50.297Z,9.89
2023-03-19T18:38:55.068Z,9.85
2023-03-19T18:43:56.809Z,9.81
2023-03-19T18:49:07.158Z,9.75
2023-03-19T18:54:11.096Z,9.67
2023-03-19T18:59:33.115Z,9.60
2023-03-19T19:04:34.770Z,9.53
2023-03-19T19:09:36.393Z,9.46
2023-03-19T19:14:38.010Z,9.40
2023-03-19T19:19:40.830Z,9.32
2023-03-19T19:24:45.308Z,9.26
2023-03-19T19:29:48.781Z,9.21
2023-03-19T19:34:51.939Z,9.12
2023-03-19T19:39:53.543Z,9.01
2023-03-19T19:44:59.328Z,8.94
2023-03-19T19:50:00.881Z,8.89
2023-03-19T19:55:02.443Z,8.85
2023-03-19T20:00:04.746Z,8.80
2023-03-19T20:05:07.377Z,8.76
2023-03-19T20:10:10.193Z,8.72
2023-03-19T20:15:17.478Z,8.69
2023-03-19T20:20:28.264Z,8.66
2023-03-19T20:25:34.413Z,8.62
2023-03-19T20:30:39.314Z,8.58
2023-03-19T20:35:41.151Z,8.52
2023-03-19T20:40:53.061Z,8.43
2023-03-19T20:45:56.994Z,8.34
2023-03-19T20:51:01.438Z,8.22
2023-03-19T20:56:04.882Z,8.13
2023-03-19T21:01:06.910Z,8.05
2023-03-19T21:06:21.613Z,7.98
2023-03-19T21:11:33.690Z,7.90
2023-03-19T21:16:36.458Z,7.83
2023-03-19T21:21:38.910Z,7.77
2023-03-19T21:26:42.515Z,7.75
2023-03-19T21:31:45.033Z,7.69
2023-03-19T21:36:47.037Z,7.64
2023-03-19T21:41:48.627Z,7.57
2023-03-19T21:46:50.597Z,7.49
2023-03-19T21:51:52.129Z,7.41
2023-03-19T21:56:53.719Z,7.34
2023-03-19T22:01:56.498Z,7.27
2023-03-19T22:06:58.642Z,7.23
2023-03-19T22:12:00.412Z,7.18
2023-03-19T22:17:02.187Z,7.11
2023-03-19T22:22:04.225Z,7.03
2023-03-19T22:27:05.861Z,6.98
2023-03-19T22:32:18.416Z,6.92
2023-03-19T22:37:30.159Z,6.89
2023-03-19T22:42:31.794Z,6.85
2023-03-19T22:47:37.185Z,6.80
2023-03-19T22:52:38.653Z,6.76
2023-03-19T22:57:40.673Z,6.70
2023-03-19T23:02:42.795Z,6.66
2023-03-19T23:07:44.288Z,6.59
2023-03-19T23:12:46.701Z,6.54
2023-03-19T23:17:49.648Z,6.46
2023-03-19T23:22:51.436Z,6.39
2023-03-19T23:27:57.856Z,6.32
2023-03-19T23:33:02.660Z,6.20
2023-03-19T23:38:04.505Z,6.05
2023-03-19T23:43:06.043Z,5.93
2023-03-19T23:48:13.665Z,5.82
2023-03-19T23:53:24.405Z,5.76
2023-03-19T23:58:40.264Z,5.71
